sensor_id;sensor_type;location;lat;lon;timestamp;pressure;altitude;pressure_sealevel;temperature;humidity
38912;BME280;28444;48.056;14.408;2023-08-07T00:02:18;97083.22;;;13.40;77.78
38912;BME280;28444;48.056;14.408;2023-08-07T00:04:45;97071.16;;;13.45;78.13
38912;BME280;28444;48.056;14.408;2023-08-07T00:07:11;97075.78;;;13.42;77.71
38912;BME280;28444;48.056;14.408;2023-08-07T00:09:38;97067.81;;;13.46;77.39
38912;BME280;28444;48.056;14.408;2023-08-07T00:12:05;97070.69;;;13.48;77.11
38912;BME280;28444;48.056;14.408;2023-08-07T00:14:31;97075.22;;;13.44;76.83
38912;BME280;28444;48.056;14.408;2023-08-07T00:16:58;97074.13;;;13.37;77.75
38912;BME280;28444;48.056;14.408;2023-08-07T00:19:24;97076.88;;;13.37;77.38
38912;BME280;28444;48.056;14.408;2023-08-07T00:21:51;97073.06;;;13.42;77.04
38912;BME280;28444;48.056;14.408;2023-08-07T00:24:18;97081.19;;;13.40;77.21
38912;BME280;28444;48.056;14.408;2023-08-07T00:26:45;97083.78;;;13.38;77.65
38912;BME280;28444;48.056;14.408;2023-08-07T00:29:11;97068.63;;;13.37;76.89
38912;BME280;28444;48.056;14.408;2023-08-07T00:31:38;97076.72;;;13.35;76.87
38912;BME280;28444;48.056;14.408;2023-08-07T00:34:05;97068.13;;;13.29;76.60
38912;BME280;28444;48.056;14.408;2023-08-07T00:36:31;97064.53;;;13.27;76.17
38912;BME280;28444;48.056;14.408;2023-08-07T00:39:02;97068.31;;;13.21;76.35
38912;BME280;28444;48.056;14.408;2023-08-07T00:41:30;97067.16;;;13.24;76.33
38912;BME280;28444;48.056;14.408;2023-08-07T00:43:56;97070.28;;;13.31;76.61
38912;BME280;28444;48.056;14.408;2023-08-07T00:46:23;97054.00;;;13.23;77.21
38912;BME280;28444;48.056;14.408;2023-08-07T00:48:52;97063.16;;;13.16;76.53
38912;BME280;28444;48.056;14.408;2023-08-07T00:51:20;97062.25;;;13.23;76.24
38912;BME280;28444;48.056;14.408;2023-08-07T00:53:48;97069.38;;;13.16;76.18
38912;BME280;28444;48.056;14.408;2023-08-07T00:56:15;97067.59;;;13.21;76.08
38912;BME280;28444;48.056;14.408;2023-08-07T00:58:41;97056.16;;;13.24;75.81
38912;BME280;28444;48.056;14.408;2023-08-07T01:01:08;97058.34;;;13.26;76.57
38912;BME280;28444;48.056;14.408;2023-08-07T01:03:35;97066.28;;;13.22;75.56
38912;BME280;28444;48.056;14.408;2023-08-07T01:06:02;97076.44;;;13.19;76.12
38912;BME280;28444;48.056;14.408;2023-08-07T01:08:29;97078.31;;;13.17;75.48
38912;BME280;28444;48.056;14.408;2023-08-07T01:13:56;97079.63;;;13.16;75.98
38912;BME280;28444;48.056;14.408;2023-08-07T01:19:05;97079.97;;;13.10;77.16
38912;BME280;28444;48.056;14.408;2023-08-07T01:21:36;97062.53;;;13.06;78.75
38912;BME280;28444;48.056;14.408;2023-08-07T01:24:03;97075.78;;;13.09;78.34
38912;BME280;28444;48.056;14.408;2023-08-07T01:26:31;97063.97;;;13.07;77.81
38912;BME280;28444;48.056;14.408;2023-08-07T01:29:06;97060.38;;;13.04;77.84
38912;BME280;28444;48.056;14.408;2023-08-07T01:31:39;97062.94;;;12.90;78.44
38912;BME280;28444;48.056;14.408;2023-08-07T01:34:07;97057.56;;;12.92;78.24
38912;BME280;28444;48.056;14.408;2023-08-07T01:36:37;97060.59;;;12.96;78.46
38912;BME280;28444;48.056;14.408;2023-08-07T01:39:05;97066.09;;;12.96;77.41
38912;BME280;28444;48.056;14.408;2023-08-07T01:41:35;97064.31;;;13.01;77.70
38912;BME280;28444;48.056;14.408;2023-08-07T01:44:02;97059.84;;;12.96;77.89
38912;BME280;28444;48.056;14.408;2023-08-07T01:46:31;97053.09;;;12.97;77.59
38912;BME280;28444;48.056;14.408;2023-08-07T01:48:57;97057.50;;;13.02;76.49
38912;BME280;28444;48.056;14.408;2023-08-07T01:51:24;97050.13;;;13.05;77.53
38912;BME280;28444;48.056;14.408;2023-08-07T01:53:51;97054.66;;;13.00;78.63
38912;BME280;28444;48.056;14.408;2023-08-07T01:56:17;97050.44;;;12.99;77.08
38912;BME280;28444;48.056;14.408;2023-08-07T01:58:44;97038.03;;;12.98;77.26
38912;BME280;28444;48.056;14.408;2023-08-07T02:01:10;97050.81;;;12.93;78.85
38912;BME280;28444;48.056;14.408;2023-08-07T02:03:37;97044.91;;;12.87;80.32
38912;BME280;28444;48.056;14.408;2023-08-07T02:06:04;97048.38;;;12.88;80.33
38912;BME280;28444;48.056;14.408;2023-08-07T02:08:31;97043.69;;;12.79;81.03
38912;BME280;28444;48.056;14.408;2023-08-07T02:10:57;97045.66;;;12.66;81.06
38912;BME280;28444;48.056;14.408;2023-08-07T02:13:24;97041.16;;;12.71;81.41
38912;BME280;28444;48.056;14.408;2023-08-07T02:15:50;97038.47;;;12.61;80.53
38912;BME280;28444;48.056;14.408;2023-08-07T02:18:17;97045.84;;;12.59;82.38
38912;BME280;28444;48.056;14.408;2023-08-07T02:20:43;97048.94;;;12.53;82.23
38912;BME280;28444;48.056;14.408;2023-08-07T02:23:12;97051.41;;;12.49;82.59
38912;BME280;28444;48.056;14.408;2023-08-07T02:25:39;97059.91;;;12.53;82.96
38912;BME280;28444;48.056;14.408;2023-08-07T02:28:05;97061.66;;;12.48;83.52
38912;BME280;28444;48.056;14.408;2023-08-07T02:30:32;97067.31;;;12.41;84.00
38912;BME280;28444;48.056;14.408;2023-08-07T02:32:58;97070.66;;;12.39;84.26
38912;BME280;28444;48.056;14.408;2023-08-07T02:35:25;97075.63;;;12.31;84.68
38912;BME280;28444;48.056;14.408;2023-08-07T02:37:52;97079.53;;;12.28;85.42
38912;BME280;28444;48.056;14.408;2023-08-07T02:40:18;97076.13;;;12.18;86.30
38912;BME280;28444;48.056;14.408;2023-08-07T02:42:45;97079.88;;;12.13;87.28
38912;BME280;28444;48.056;14.408;2023-08-07T02:45:13;97059.59;;;12.06;86.47
38912;BME280;28444;48.056;14.408;2023-08-07T02:47:40;97077.91;;;12.03;86.88
38912;BME280;28444;48.056;14.408;2023-08-07T02:50:07;97081.84;;;11.91;87.67
38912;BME280;28444;48.056;14.408;2023-08-07T02:52:33;97085.31;;;11.91;87.70
38912;BME280;28444;48.056;14.408;2023-08-07T02:55:00;97090.22;;;11.93;88.21
38912;BME280;28444;48.056;14.408;2023-08-07T02:57:27;97085.78;;;11.88;89.38
38912;BME280;28444;48.056;14.408;2023-08-07T02:59:53;97083.28;;;11.82;89.86
38912;BME280;28444;48.056;14.408;2023-08-07T03:02:20;97082.44;;;11.79;90.46
38912;BME280;28444;48.056;14.408;2023-08-07T03:04:46;97090.81;;;11.81;91.53
38912;BME280;28444;48.056;14.408;2023-08-07T03:07:13;97085.94;;;11.70;91.74
38912;BME280;28444;48.056;14.408;2023-08-07T03:09:40;97078.44;;;11.71;90.79
38912;BME280;28444;48.056;14.408;2023-08-07T03:12:07;97080.47;;;11.70;90.11
38912;BME280;28444;48.056;14.408;2023-08-07T03:14:34;97098.31;;;11.71;91.20
38912;BME280;28444;48.056;14.408;2023-08-07T03:17:01;97090.69;;;11.70;89.87
38912;BME280;28444;48.056;14.408;2023-08-07T03:19:28;97106.25;;;11.67;89.58
38912;BME280;28444;48.056;14.408;2023-08-07T03:21:54;97098.66;;;11.66;90.71
38912;BME280;28444;48.056;14.408;2023-08-07T03:24:21;97108.31;;;11.57;92.09
38912;BME280;28444;48.056;14.408;2023-08-07T03:26:48;97108.19;;;11.55;91.90
38912;BME280;28444;48.056;14.408;2023-08-07T03:29:15;97119.56;;;11.51;91.05
38912;BME280;28444;48.056;14.408;2023-08-07T03:31:42;97110.16;;;11.54;91.63
38912;BME280;28444;48.056;14.408;2023-08-07T03:34:08;97123.72;;;11.62;91.42
38912;BME280;28444;48.056;14.408;2023-08-07T03:36:35;97122.84;;;11.69;91.30
38912;BME280;28444;48.056;14.408;2023-08-07T03:39:02;97131.06;;;11.69;91.10
38912;BME280;28444;48.056;14.408;2023-08-07T03:41:29;97145.63;;;11.62;92.67
38912;BME280;28444;48.056;14.408;2023-08-07T03:43:56;97154.25;;;11.68;91.99
38912;BME280;28444;48.056;14.408;2023-08-07T03:46:22;97148.06;;;11.58;91.32
38912;BME280;28444;48.056;14.408;2023-08-07T03:48:49;97149.81;;;11.53;92.34
38912;BME280;28444;48.056;14.408;2023-08-07T03:51:15;97160.63;;;11.51;94.62
38912;BME280;28444;48.056;14.408;2023-08-07T03:53:43;97156.31;;;11.48;93.83
38912;BME280;28444;48.056;14.408;2023-08-07T03:56:10;97168.09;;;11.51;94.23
38912;BME280;28444;48.056;14.408;2023-08-07T03:58:37;97166.53;;;11.38;95.56
38912;BME280;28444;48.056;14.408;2023-08-07T04:01:03;97169.72;;;11.35;94.98
38912;BME280;28444;48.056;14.408;2023-08-07T04:03:30;97175.19;;;11.35;94.46
38912;BME280;28444;48.056;14.408;2023-08-07T04:05:57;97171.88;;;11.26;95.66
38912;BME280;28444;48.056;14.408;2023-08-07T04:08:24;97170.00;;;11.29;96.94
38912;BME280;28444;48.056;14.408;2023-08-07T04:11:00;97178.22;;;11.19;96.68
38912;BME280;28444;48.056;14.408;2023-08-07T04:13:28;97175.75;;;11.14;97.14
38912;BME280;28444;48.056;14.408;2023-08-07T04:15:55;97175.91;;;11.16;96.20
38912;BME280;28444;48.056;14.408;2023-08-07T04:18:22;97178.34;;;11.12;96.19
38912;BME280;28444;48.056;14.408;2023-08-07T04:20:53;97171.00;;;11.04;95.73
38912;BME280;28444;48.056;14.408;2023-08-07T04:23:23;97173.03;;;11.04;95.94
38912;BME280;28444;48.056;14.408;2023-08-07T04:25:51;97178.06;;;11.07;96.86
38912;BME280;28444;48.056;14.408;2023-08-07T04:28:18;97169.00;;;11.05;97.15
38912;BME280;28444;48.056;14.408;2023-08-07T04:30:49;97168.69;;;11.11;97.37
38912;BME280;28444;48.056;14.408;2023-08-07T04:33:17;97176.63;;;10.97;97.95
38912;BME280;28444;48.056;14.408;2023-08-07T04:35:44;97163.94;;;11.01;97.02
38912;BME280;28444;48.056;14.408;2023-08-07T04:38:12;97165.81;;;10.99;97.96
38912;BME280;28444;48.056;14.408;2023-08-07T04:40:43;97176.88;;;10.91;97.61
38912;BME280;28444;48.056;14.408;2023-08-07T04:43:10;97164.47;;;10.80;98.28
38912;BME280;28444;48.056;14.408;2023-08-07T04:45:37;97159.31;;;10.75;99.53
38912;BME280;28444;48.056;14.408;2023-08-07T04:48:07;97156.38;;;10.63;100.00
38912;BME280;28444;48.056;14.408;2023-08-07T04:50:34;97148.88;;;10.54;100.00
38912;BME280;28444;48.056;14.408;2023-08-07T04:53:01;97151.75;;;10.56;100.00
38912;BME280;28444;48.056;14.408;2023-08-07T04:55:28;97145.88;;;10.59;100.00
38912;BME280;28444;48.056;14.408;2023-08-07T04:57:54;97150.66;;;10.69;100.00
38912;BME280;28444;48.056;14.408;2023-08-07T05:00:23;97141.13;;;10.60;100.00
38912;BME280;28444;48.056;14.408;2023-08-07T05:02:49;97146.75;;;10.62;100.00
38912;BME280;28444;48.056;14.408;2023-08-07T05:05:17;97147.75;;;10.67;99.99
38912;BME280;28444;48.056;14.408;2023-08-07T05:07:47;97154.34;;;10.64;99.20
38912;BME280;28444;48.056;14.408;2023-08-07T05:10:14;97142.72;;;10.63;99.34
38912;BME280;28444;48.056;14.408;2023-08-07T05:12:41;97158.56;;;10.65;99.26
38912;BME280;28444;48.056;14.408;2023-08-07T05:15:08;97162.44;;;10.62;99.17
38912;BME280;28444;48.056;14.408;2023-08-07T05:17:34;97165.59;;;10.58;99.24
38912;BME280;28444;48.056;14.408;2023-08-07T05:20:01;97176.94;;;10.54;98.81
38912;BME280;28444;48.056;14.408;2023-08-07T05:22:29;97164.44;;;10.61;98.79
38912;BME280;28444;48.056;14.408;2023-08-07T05:24:56;97158.69;;;10.57;100.00
38912;BME280;28444;48.056;14.408;2023-08-07T05:27:22;97170.63;;;10.62;98.06
38912;BME280;28444;48.056;14.408;2023-08-07T05:29:49;97157.50;;;10.60;96.85
38912;BME280;28444;48.056;14.408;2023-08-07T05:32:15;97167.03;;;10.59;96.25
38912;BME280;28444;48.056;14.408;2023-08-07T05:34:43;97174.22;;;10.54;97.33
38912;BME280;28444;48.056;14.408;2023-08-07T05:37:09;97171.19;;;10.60;96.50
38912;BME280;28444;48.056;14.408;2023-08-07T05:39:36;97173.25;;;10.69;97.18
38912;BME280;28444;48.056;14.408;2023-08-07T05:42:03;97157.25;;;10.66;97.18
38912;BME280;28444;48.056;14.408;2023-08-07T05:44:30;97172.97;;;10.75;95.30
38912;BME280;28444;48.056;14.408;2023-08-07T05:46:56;97162.59;;;10.73;96.63
38912;BME280;28444;48.056;14.408;2023-08-07T05:49:23;97183.03;;;10.72;96.08
38912;BME280;28444;48.056;14.408;2023-08-07T05:51:52;97169.94;;;10.80;97.64
38912;BME280;28444;48.056;14.408;2023-08-07T05:54:20;97168.66;;;10.81;97.54
38912;BME280;28444;48.056;14.408;2023-08-07T05:56:47;97180.75;;;10.88;97.12
38912;BME280;28444;48.056;14.408;2023-08-07T05:59:14;97192.88;;;10.95;95.98
38912;BME280;28444;48.056;14.408;2023-08-07T06:01:41;97181.22;;;10.94;96.22
38912;BME280;28444;48.056;14.408;2023-08-07T06:04:08;97192.16;;;10.94;96.43
38912;BME280;28444;48.056;14.408;2023-08-07T06:06:35;97184.97;;;10.99;96.31
38912;BME280;28444;48.056;14.408;2023-08-07T06:09:03;97193.88;;;10.90;96.56
38912;BME280;28444;48.056;14.408;2023-08-07T06:11:33;97203.34;;;10.89;97.07
38912;BME280;28444;48.056;14.408;2023-08-07T06:13:59;97198.34;;;10.95;97.53
38912;BME280;28444;48.056;14.408;2023-08-07T06:16:26;97202.97;;;11.02;97.46
38912;BME280;28444;48.056;14.408;2023-08-07T06:18:53;97216.34;;;10.98;98.22
38912;BME280;28444;48.056;14.408;2023-08-07T06:21:20;97210.03;;;11.05;97.30
38912;BME280;28444;48.056;14.408;2023-08-07T06:23:47;97220.38;;;10.97;98.11
38912;BME280;28444;48.056;14.408;2023-08-07T06:26:13;97236.22;;;10.98;96.98
38912;BME280;28444;48.056;14.408;2023-08-07T06:28:41;97221.91;;;10.80;96.63
38912;BME280;28444;48.056;14.408;2023-08-07T06:31:11;97237.59;;;10.80;94.78
38912;BME280;28444;48.056;14.408;2023-08-07T06:33:38;97240.94;;;10.78;96.95
38912;BME280;28444;48.056;14.408;2023-08-07T06:36:06;97234.88;;;10.80;97.56
38912;BME280;28444;48.056;14.408;2023-08-07T06:38:33;97259.31;;;10.78;97.84
38912;BME280;28444;48.056;14.408;2023-08-07T06:41:00;97245.66;;;10.78;97.96
38912;BME280;28444;48.056;14.408;2023-08-07T06:43:26;97264.97;;;10.80;98.52
38912;BME280;28444;48.056;14.408;2023-08-07T06:45:54;97248.25;;;10.85;96.45
38912;BME280;28444;48.056;14.408;2023-08-07T06:48:21;97261.22;;;10.85;96.56
38912;BME280;28444;48.056;14.408;2023-08-07T06:50:51;97263.41;;;10.87;97.11
38912;BME280;28444;48.056;14.408;2023-08-07T06:53:19;97267.13;;;10.81;97.36
38912;BME280;28444;48.056;14.408;2023-08-07T06:55:45;97284.16;;;10.90;96.07
38912;BME280;28444;48.056;14.408;2023-08-07T06:58:12;97266.56;;;10.83;95.62
38912;BME280;28444;48.056;14.408;2023-08-07T07:00:39;97273.47;;;10.84;95.70
38912;BME280;28444;48.056;14.408;2023-08-07T07:03:06;97293.34;;;10.84;95.04
38912;BME280;28444;48.056;14.408;2023-08-07T07:05:34;97279.22;;;10.78;95.43
38912;BME280;28444;48.056;14.408;2023-08-07T07:08:00;97278.94;;;10.84;95.13
38912;BME280;28444;48.056;14.408;2023-08-07T07:10:27;97277.91;;;10.79;93.85
38912;BME280;28444;48.056;14.408;2023-08-07T07:12:54;97289.00;;;10.81;94.95
38912;BME280;28444;48.056;14.408;2023-08-07T07:15:21;97281.94;;;10.78;93.84
38912;BME280;28444;48.056;14.408;2023-08-07T07:17:48;97284.16;;;10.90;94.06
38912;BME280;28444;48.056;14.408;2023-08-07T07:20:14;97297.38;;;10.83;94.22
38912;BME280;28444;48.056;14.408;2023-08-07T07:22:41;97311.38;;;10.97;94.55
38912;BME280;28444;48.056;14.408;2023-08-07T07:25:08;97312.69;;;11.06;95.48
38912;BME280;28444;48.056;14.408;2023-08-07T07:27:34;97311.56;;;11.09;94.02
38912;BME280;28444;48.056;14.408;2023-08-07T07:30:01;97304.63;;;10.98;92.84
38912;BME280;28444;48.056;14.408;2023-08-07T07:32:28;97322.94;;;11.05;93.66
38912;BME280;28444;48.056;14.408;2023-08-07T07:34:54;97329.41;;;11.10;93.38
38912;BME280;28444;48.056;14.408;2023-08-07T07:37:21;97317.28;;;11.03;93.66
38912;BME280;28444;48.056;14.408;2023-08-07T07:39:48;97323.75;;;10.98;93.79
38912;BME280;28444;48.056;14.408;2023-08-07T07:42:14;97327.53;;;11.03;95.92
38912;BME280;28444;48.056;14.408;2023-08-07T07:44:41;97338.34;;;11.11;96.10
38912;BME280;28444;48.056;14.408;2023-08-07T07:47:08;97344.22;;;11.07;96.53
38912;BME280;28444;48.056;14.408;2023-08-07T07:49:39;97346.66;;;11.03;95.89
38912;BME280;28444;48.056;14.408;2023-08-07T07:52:06;97352.78;;;11.11;96.94
38912;BME280;28444;48.056;14.408;2023-08-07T07:54:34;97348.44;;;11.18;97.51
38912;BME280;28444;48.056;14.408;2023-08-07T07:57:01;97357.13;;;11.24;96.88
38912;BME280;28444;48.056;14.408;2023-08-07T07:59:27;97363.72;;;11.21;97.88
38912;BME280;28444;48.056;14.408;2023-08-07T08:01:54;97357.28;;;11.26;96.69
38912;BME280;28444;48.056;14.408;2023-08-07T08:04:22;97358.44;;;11.32;96.43
38912;BME280;28444;48.056;14.408;2023-08-07T08:06:48;97360.63;;;11.34;97.83
38912;BME280;28444;48.056;14.408;2023-08-07T08:09:15;97364.50;;;11.31;98.05
38912;BME280;28444;48.056;14.408;2023-08-07T08:11:42;97378.22;;;11.41;97.42
38912;BME280;28444;48.056;14.408;2023-08-07T08:14:09;97366.38;;;11.38;96.42
38912;BME280;28444;48.056;14.408;2023-08-07T08:16:35;97377.16;;;11.26;97.58
38912;BME280;28444;48.056;14.408;2023-08-07T08:19:02;97386.50;;;11.23;97.52
38912;BME280;28444;48.056;14.408;2023-08-07T08:21:29;97377.47;;;11.30;97.79
38912;BME280;28444;48.056;14.408;2023-08-07T08:23:57;97386.69;;;11.35;96.94
38912;BME280;28444;48.056;14.408;2023-08-07T08:26:23;97398.81;;;11.42;97.43
38912;BME280;28444;48.056;14.408;2023-08-07T08:28:50;97400.72;;;11.49;98.39
38912;BME280;28444;48.056;14.408;2023-08-07T08:31:17;97400.84;;;11.51;97.58
38912;BME280;28444;48.056;14.408;2023-08-07T08:33:44;97401.00;;;11.53;96.34
38912;BME280;28444;48.056;14.408;2023-08-07T08:36:10;97412.38;;;11.49;96.99
38912;BME280;28444;48.056;14.408;2023-08-07T08:38:37;97405.19;;;11.54;98.05
38912;BME280;28444;48.056;14.408;2023-08-07T08:41:06;97404.88;;;11.40;97.91
38912;BME280;28444;48.056;14.408;2023-08-07T08:43:35;97414.97;;;11.47;98.41
38912;BME280;28444;48.056;14.408;2023-08-07T08:46:04;97425.19;;;11.47;97.18
38912;BME280;28444;48.056;14.408;2023-08-07T08:48:38;97426.53;;;11.55;98.16
38912;BME280;28444;48.056;14.408;2023-08-07T08:51:06;97433.44;;;11.56;97.83
38912;BME280;28444;48.056;14.408;2023-08-07T08:53:34;97433.28;;;11.54;96.51
38912;BME280;28444;48.056;14.408;2023-08-07T08:56:01;97434.88;;;11.57;98.02
38912;BME280;28444;48.056;14.408;2023-08-07T08:58:28;97428.97;;;11.51;97.82
38912;BME280;28444;48.056;14.408;2023-08-07T09:00:55;97438.66;;;11.62;99.08
38912;BME280;28444;48.056;14.408;2023-08-07T09:03:23;97450.78;;;11.69;98.03
38912;BME280;28444;48.056;14.408;2023-08-07T09:05:53;97447.00;;;11.64;96.94
38912;BME280;28444;48.056;14.408;2023-08-07T09:08:22;97456.66;;;11.65;98.19
38912;BME280;28444;48.056;14.408;2023-08-07T09:10:51;97447.06;;;11.74;96.91
38912;BME280;28444;48.056;14.408;2023-08-07T09:13:22;97460.47;;;11.79;97.47
38912;BME280;28444;48.056;14.408;2023-08-07T09:15:50;97459.56;;;11.67;96.07
38912;BME280;28444;48.056;14.408;2023-08-07T09:18:18;97458.84;;;11.67;98.40
38912;BME280;28444;48.056;14.408;2023-08-07T09:20:48;97462.13;;;11.55;99.28
38912;BME280;28444;48.056;14.408;2023-08-07T09:23:16;97469.81;;;11.67;99.75
38912;BME280;28444;48.056;14.408;2023-08-07T09:25:44;97476.03;;;11.77;99.41
38912;BME280;28444;48.056;14.408;2023-08-07T09:28:11;97465.81;;;11.77;99.17
38912;BME280;28444;48.056;14.408;2023-08-07T09:30:38;97472.13;;;11.80;100.00
38912;BME280;28444;48.056;14.408;2023-08-07T09:33:05;97466.03;;;11.99;100.00
38912;BME280;28444;48.056;14.408;2023-08-07T09:35:32;97471.38;;;12.07;97.66
38912;BME280;28444;48.056;14.408;2023-08-07T09:38:01;97468.19;;;12.00;96.10
38912;BME280;28444;48.056;14.408;2023-08-07T09:40:29;97473.09;;;12.12;98.22
38912;BME280;28444;48.056;14.408;2023-08-07T09:42:56;97470.03;;;11.98;96.88
38912;BME280;28444;48.056;14.408;2023-08-07T09:45:23;97481.63;;;12.06;98.73
38912;BME280;28444;48.056;14.408;2023-08-07T09:48:00;97481.88;;;12.00;98.35
38912;BME280;28444;48.056;14.408;2023-08-07T09:50:28;97485.09;;;12.07;98.01
38912;BME280;28444;48.056;14.408;2023-08-07T09:52:55;97497.59;;;12.00;98.22
38912;BME280;28444;48.056;14.408;2023-08-07T09:55:22;97492.97;;;11.93;99.63
38912;BME280;28444;48.056;14.408;2023-08-07T09:57:49;97496.44;;;11.93;98.38
38912;BME280;28444;48.056;14.408;2023-08-07T10:00:17;97502.34;;;11.90;97.84
38912;BME280;28444;48.056;14.408;2023-08-07T10:02:50;97495.25;;;11.87;99.42
38912;BME280;28444;48.056;14.408;2023-08-07T10:05:17;97504.09;;;11.95;100.00
38912;BME280;28444;48.056;14.408;2023-08-07T10:07:44;97508.00;;;12.01;98.25
38912;BME280;28444;48.056;14.408;2023-08-07T10:10:11;97496.03;;;12.16;99.96
38912;BME280;28444;48.056;14.408;2023-08-07T10:12:38;97502.44;;;12.28;100.00
38912;BME280;28444;48.056;14.408;2023-08-07T10:15:06;97494.06;;;12.36;99.23
38912;BME280;28444;48.056;14.408;2023-08-07T10:17:33;97499.97;;;12.52;97.51
38912;BME280;28444;48.056;14.408;2023-08-07T10:20:00;97502.88;;;12.54;98.21
38912;BME280;28444;48.056;14.408;2023-08-07T10:22:29;97507.34;;;12.59;97.38
38912;BME280;28444;48.056;14.408;2023-08-07T10:24:59;97510.38;;;12.63;97.71
38912;BME280;28444;48.056;14.408;2023-08-07T10:27:27;97513.97;;;12.56;99.29
38912;BME280;28444;48.056;14.408;2023-08-07T10:29:56;97509.66;;;12.63;97.79
38912;BME280;28444;48.056;14.408;2023-08-07T10:32:25;97501.00;;;12.66;97.08
38912;BME280;28444;48.056;14.408;2023-08-07T10:34:53;97511.09;;;12.83;97.46
38912;BME280;28444;48.056;14.408;2023-08-07T10:37:42;97503.72;;;12.95;97.38
38912;BME280;28444;48.056;14.408;2023-08-07T10:40:13;97518.91;;;12.87;97.86
38912;BME280;28444;48.056;14.408;2023-08-07T10:45:19;97514.69;;;12.95;96.28
38912;BME280;28444;48.056;14.408;2023-08-07T10:48:02;97507.50;;;12.90;96.58
38912;BME280;28444;48.056;14.408;2023-08-07T10:50:32;97510.06;;;12.88;97.13
38912;BME280;28444;48.056;14.408;2023-08-07T10:53:03;97511.09;;;12.93;97.30
38912;BME280;28444;48.056;14.408;2023-08-07T10:55:46;97509.06;;;12.93;97.17
38912;BME280;28444;48.056;14.408;2023-08-07T10:58:32;97509.06;;;13.03;95.93
38912;BME280;28444;48.056;14.408;2023-08-07T11:03:59;97528.25;;;13.22;97.33
38912;BME280;28444;48.056;14.408;2023-08-07T11:06:29;97516.84;;;13.07;95.45
38912;BME280;28444;48.056;14.408;2023-08-07T11:08:59;97501.41;;;13.11;97.89
38912;BME280;28444;48.056;14.408;2023-08-07T11:11:29;97507.59;;;13.31;94.86
38912;BME280;28444;48.056;14.408;2023-08-07T11:13:56;97513.50;;;13.37;94.57
38912;BME280;28444;48.056;14.408;2023-08-07T11:16:23;97505.97;;;13.38;93.58
38912;BME280;28444;48.056;14.408;2023-08-07T11:18:50;97502.97;;;13.34;93.81
38912;BME280;28444;48.056;14.408;2023-08-07T11:21:16;97520.13;;;13.44;94.36
38912;BME280;28444;48.056;14.408;2023-08-07T11:23:43;97512.28;;;13.50;94.87
38912;BME280;28444;48.056;14.408;2023-08-07T11:26:13;97515.88;;;13.62;91.89
38912;BME280;28444;48.056;14.408;2023-08-07T11:28:39;97518.69;;;13.84;91.64
38912;BME280;28444;48.056;14.408;2023-08-07T11:31:06;97518.19;;;13.66;90.66
38912;BME280;28444;48.056;14.408;2023-08-07T11:33:33;97510.16;;;13.80;93.10
38912;BME280;28444;48.056;14.408;2023-08-07T11:35:59;97517.94;;;13.83;90.47
38912;BME280;28444;48.056;14.408;2023-08-07T11:38:34;97522.28;;;13.86;92.21
38912;BME280;28444;48.056;14.408;2023-08-07T11:41:02;97522.53;;;13.90;90.87
38912;BME280;28444;48.056;14.408;2023-08-07T11:43:30;97521.28;;;13.82;89.76
38912;BME280;28444;48.056;14.408;2023-08-07T11:46:01;97518.72;;;13.74;89.77
38912;BME280;28444;48.056;14.408;2023-08-07T11:48:29;97521.72;;;13.78;89.00
38912;BME280;28444;48.056;14.408;2023-08-07T11:50:57;97520.66;;;13.62;88.15
38912;BME280;28444;48.056;14.408;2023-08-07T11:53:25;97524.84;;;13.63;85.01
38912;BME280;28444;48.056;14.408;2023-08-07T11:55:57;97529.47;;;13.60;85.41
38912;BME280;28444;48.056;14.408;2023-08-07T11:58:26;97521.56;;;13.55;85.36
38912;BME280;28444;48.056;14.408;2023-08-07T12:00:53;97522.59;;;13.40;85.65
38912;BME280;28444;48.056;14.408;2023-08-07T12:03:27;97529.28;;;13.27;83.81
38912;BME280;28444;48.056;14.408;2023-08-07T12:05:58;97532.63;;;13.26;84.40
38912;BME280;28444;48.056;14.408;2023-08-07T12:08:39;97533.00;;;13.32;85.58
38912;BME280;28444;48.056;14.408;2023-08-07T12:11:08;97532.72;;;13.37;82.86
38912;BME280;28444;48.056;14.408;2023-08-07T12:13:40;97535.47;;;13.28;84.35
38912;BME280;28444;48.056;14.408;2023-08-07T12:16:07;97537.34;;;13.35;85.40
38912;BME280;28444;48.056;14.408;2023-08-07T12:18:45;97532.84;;;13.49;85.39
38912;BME280;28444;48.056;14.408;2023-08-07T12:21:21;97539.75;;;13.50;83.07
38912;BME280;28444;48.056;14.408;2023-08-07T12:23:50;97539.84;;;13.71;82.40
38912;BME280;28444;48.056;14.408;2023-08-07T12:26:17;97539.47;;;13.87;82.37
38912;BME280;28444;48.056;14.408;2023-08-07T12:28:44;97530.81;;;14.12;81.01
38912;BME280;28444;48.056;14.408;2023-08-07T12:31:11;97537.91;;;14.15;81.76
38912;BME280;28444;48.056;14.408;2023-08-07T12:33:37;97535.56;;;14.21;80.95
38912;BME280;28444;48.056;14.408;2023-08-07T12:36:04;97530.19;;;14.23;81.39
38912;BME280;28444;48.056;14.408;2023-08-07T12:38:44;97531.50;;;14.22;80.07
38912;BME280;28444;48.056;14.408;2023-08-07T12:41:10;97533.34;;;14.29;79.43
38912;BME280;28444;48.056;14.408;2023-08-07T12:43:40;97537.97;;;14.27;78.49
38912;BME280;28444;48.056;14.408;2023-08-07T12:46:07;97540.19;;;14.18;78.38
38912;BME280;28444;48.056;14.408;2023-08-07T12:48:36;97540.38;;;14.11;79.50
38912;BME280;28444;48.056;14.408;2023-08-07T12:51:03;97536.06;;;14.08;79.37
38912;BME280;28444;48.056;14.408;2023-08-07T12:53:30;97521.00;;;14.09;80.71
38912;BME280;28444;48.056;14.408;2023-08-07T12:55:58;97531.63;;;14.24;80.21
38912;BME280;28444;48.056;14.408;2023-08-07T12:58:24;97534.59;;;14.38;81.30
38912;BME280;28444;48.056;14.408;2023-08-07T13:00:54;97536.50;;;14.35;80.34
38912;BME280;28444;48.056;14.408;2023-08-07T13:03:21;97532.75;;;14.31;81.07
38912;BME280;28444;48.056;14.408;2023-08-07T13:05:47;97537.34;;;14.38;82.23